createdAt,value
2022-09-07T00:01:47.974Z,50.21
2022-09-07T00:04:20.043Z,50.25
2022-09-07T00:06:51.780Z,50.34
2022-09-07T00:09:26.592Z,50.44
2022-09-07T00:11:58.335Z,50.46
2022-09-07T00:14:32.177Z,50.52
2022-09-07T00:17:05.714Z,50.78
2022-09-07T00:19:37.432Z,50.97
2022-09-07T00:22:10.455Z,50.78
2022-09-07T00:24:42.179Z,50.84
2022-09-07T00:27:13.918Z,51.01
2022-09-07T00:29:45.758Z,51.16
2022-09-07T00:32:17.557Z,51.17
2022-09-07T00:34:50.912Z,51.42
2022-09-07T00:37:22.604Z,51.46
2022-09-07T00:39:54.675Z,51.47
2022-09-07T00:42:26.455Z,51.77
2022-09-07T00:45:09.925Z,51.80
2022-09-07T00:47:46.820Z,51.90
2022-09-07T00:50:23.525Z,51.99
2022-09-07T00:52:59.266Z,52.06
2022-09-07T00:55:32.698Z,52.27
2022-09-07T00:58:05.719Z,52.56
2022-09-07T01:00:39.863Z,52.48
2022-09-07T01:03:13.709Z,52.52
2022-09-07T01:05:49.779Z,52.64
2022-09-07T01:08:22.253Z,52.70
2022-09-07T01:10:54.068Z,52.73
2022-09-07T01:13:27.989Z,52.92
2022-09-07T01:16:08.942Z,52.90
2022-09-07T01:18:53.385Z,53.08
2022-09-07T01:21:28.197Z,53.42
2022-09-07T01:24:35.419Z,53.61
2022-09-07T01:27:33.917Z,53.57
2022-09-07T01:30:10.695Z,53.75
2022-09-07T01:32:55.636Z,53.92
2022-09-07T01:35:40.135Z,54.02
2022-09-07T01:38:18.350Z,54.08
2022-09-07T01:40:54.744Z,54.15
2022-09-07T01:43:40.860Z,54.30
2022-09-07T01:46:18.466Z,54.50
2022-09-07T01:48:53.613Z,54.65
2022-09-07T01:51:34.501Z,54.65
2022-09-07T01:54:14.650Z,54.78
2022-09-07T01:56:58.801Z,54.97
2022-09-07T01:59:34.834Z,55.12
2022-09-07T02:02:10.143Z,55.26
2022-09-07T02:04:48.359Z,55.75
2022-09-07T02:07:25.604Z,56.07
2022-09-07T02:10:02.209Z,56.46
2022-09-07T02:12:41.479Z,56.56
2022-09-07T02:15:18.358Z,56.78
2022-09-07T02:17:55.069Z,56.46
2022-09-07T02:20:31.391Z,56.81
2022-09-07T02:23:07.177Z,56.96
2022-09-07T02:25:41.497Z,57.11
2022-09-07T02:28:18.416Z,57.04
2022-09-07T02:30:50.249Z,56.90
2022-09-07T02:33:22.287Z,57.32
2022-09-07T02:35:54.317Z,57.66
2022-09-07T02:38:26.622Z,57.36
2022-09-07T02:41:00.871Z,57.57
2022-09-07T02:43:33.515Z,58.08
2022-09-07T02:46:23.827Z,58.58
2022-09-07T02:49:05.621Z,58.77
2022-09-07T02:51:46.299Z,58.78
2022-09-07T02:54:39.506Z,58.46
2022-09-07T02:57:20.284Z,58.81
2022-09-07T03:00:04.231Z,58.78
2022-09-07T03:02:44.835Z,58.83
2022-09-07T03:05:22.919Z,59.27
2022-09-07T03:08:01.126Z,59.49
2022-09-07T03:10:33.389Z,59.74
2022-09-07T03:13:04.834Z,59.59
2022-09-07T03:15:36.536Z,59.73
2022-09-07T03:18:08.361Z,60.09
2022-09-07T03:20:40.083Z,60.26
2022-09-07T03:23:11.653Z,60.47
2022-09-07T03:25:43.478Z,60.43
2022-09-07T03:28:17.477Z,60.70
2022-09-07T03:30:49.625Z,60.68
2022-09-07T03:33:19.712Z,60.50
2022-09-07T03:36:01.646Z,60.56
2022-09-07T03:38:33.537Z,60.37
2022-09-07T03:41:07.274Z,60.61
2022-09-07T03:43:38.799Z,60.52
2022-09-07T03:46:11.201Z,60.63
2022-09-07T03:48:42.684Z,60.67
2022-09-07T03:51:15.531Z,60.72
2022-09-07T03:53:53.152Z,60.95
2022-09-07T03:56:25.811Z,61.00
2022-09-07T03:58:57.850Z,61.31
2022-09-07T04:01:29.722Z,61.73
2022-09-07T04:04:02.929Z,62.12
2022-09-07T04:06:34.632Z,62.34
2022-09-07T04:09:05.340Z,62.50
2022-09-07T04:11:40.334Z,62.46
2022-09-07T04:14:12.906Z,62.37
2022-09-07T04:16:45.492Z,62.22
2022-09-07T04:19:17.097Z,62.47
2022-09-07T04:21:48.575Z,62.91
2022-09-07T04:24:20.886Z,63.01
2022-09-07T04:26:53.639Z,63.18
2022-09-07T04:29:27.179Z,63.83
2022-09-07T04:31:57.269Z,64.07
2022-09-07T04:34:28.829Z,64.12
2022-09-07T04:36:58.790Z,63.38
2022-09-07T04:39:30.380Z,62.08
2022-09-07T04:42:00.339Z,60.64
2022-09-07T04:44:31.821Z,59.52
2022-09-07T04:47:01.824Z,58.30
2022-09-07T04:49:33.340Z,58.79
2022-09-07T04:52:03.633Z,58.69
2022-09-07T04:54:38.007Z,58.31
2022-09-07T04:57:14.633Z,57.79
2022-09-07T04:59:46.321Z,56.80
2022-09-07T05:02:17.907Z,55.48
2022-09-07T05:04:52.828Z,53.98
2022-09-07T05:07:24.910Z,52.67
2022-09-07T05:09:58.707Z,51.23
2022-09-07T05:12:30.541Z,49.32
2022-09-07T05:15:03.708Z,48.05
2022-09-07T05:17:35.281Z,47.25
2022-09-07T05:20:13.952Z,46.46
2022-09-07T05:22:48.124Z,45.93
2022-09-07T05:25:19.701Z,45.01
2022-09-07T05:27:51.189Z,44.23
2022-09-07T05:33:14.407Z,41.58
2022-09-07T05:35:47.957Z,40.58
2022-09-07T05:38:19.404Z,39.52
2022-09-07T05:40:50.896Z,38.12
2022-09-07T05:43:23.139Z,38.05
2022-09-07T05:45:57.177Z,37.86
2022-09-07T05:48:29.164Z,37.54
2022-09-07T05:51:00.852Z,36.86
2022-09-07T05:53:34.855Z,36.69
2022-09-07T05:56:08.451Z,36.52
2022-09-07T05:58:40.530Z,35.85
2022-09-07T06:01:16.454Z,35.46
2022-09-07T06:03:47.942Z,34.86
2022-09-07T06:06:20.770Z,34.28
2022-09-07T06:08:54.234Z,33.43
2022-09-07T06:11:28.518Z,34.40
2022-09-07T06:13:59.995Z,34.10
2022-09-07T06:16:34.441Z,33.13
2022-09-07T06:19:08.893Z,33.12
2022-09-07T06:21:40.839Z,32.83
2022-09-07T06:24:12.467Z,32.27
2022-09-07T06:26:44.066Z,32.61
2022-09-07T06:29:15.662Z,32.79
2022-09-07T06:34:38.608Z,32.52
2022-09-07T06:37:10.707Z,32.52
2022-09-07T06:39:42.253Z,33.05
2022-09-07T06:42:14.005Z,33.23
2022-09-07T06:44:47.868Z,33.56
2022-09-07T06:47:19.370Z,33.37
2022-09-07T06:49:50.826Z,33.55
2022-09-07T06:52:22.565Z,33.84
2022-09-07T06:55:01.487Z,33.09
2022-09-07T06:57:33.189Z,32.20
2022-09-07T07:00:05.792Z,32.03
2022-09-07T07:02:37.268Z,31.69
2022-09-07T07:05:12.776Z,32.08
2022-09-07T07:07:47.225Z,32.03
2022-09-07T07:10:24.194Z,31.05
2022-09-07T07:12:58.471Z,31.36
2022-09-07T07:15:32.806Z,32.34
2022-09-07T07:18:19.753Z,32.32
2022-09-07T07:20:52.335Z,32.22
2022-09-07T07:23:23.989Z,32.17
2022-09-07T07:25:55.458Z,33.20
2022-09-07T07:31:25.873Z,34.30
2022-09-07T07:33:58.428Z,34.97
2022-09-07T07:36:30.895Z,35.99
2022-09-07T07:39:02.929Z,36.96
2022-09-07T07:41:57.359Z,37.18
2022-09-07T07:44:33.088Z,37.96
2022-09-07T07:47:04.686Z,38.00
2022-09-07T07:49:36.125Z,38.59
2022-09-07T07:54:59.480Z,40.33
2022-09-07T07:57:32.551Z,41.13
2022-09-07T08:00:05.453Z,40.76
2022-09-07T08:02:42.944Z,40.97
2022-09-07T08:05:17.093Z,41.46
2022-09-07T08:07:48.521Z,41.47
2022-09-07T08:10:20.064Z,41.89
2022-09-07T08:12:51.864Z,42.45
2022-09-07T08:15:23.463Z,42.95
2022-09-07T08:17:54.862Z,43.18
2022-09-07T08:20:26.508Z,43.20
2022-09-07T08:22:58.212Z,42.26
2022-09-07T08:25:29.659Z,42.36
2022-09-07T08:28:01.068Z,42.35
2022-09-07T08:30:32.600Z,42.37
2022-09-07T08:33:04.136Z,42.34
2022-09-07T08:35:35.635Z,42.64
2022-09-07T08:38:07.156Z,42.39
2022-09-07T08:40:40.233Z,42.47
2022-09-07T08:43:19.907Z,41.87
2022-09-07T08:45:57.755Z,42.69
2022-09-07T08:48:36.743Z,42.96
2022-09-07T08:51:19.051Z,42.77
2022-09-07T08:53:52.733Z,42.11
2022-09-07T08:56:33.433Z,42.49
2022-09-07T08:59:17.927Z,41.95
2022-09-07T09:07:44.770Z,41.78
2022-09-07T09:10:24.055Z,41.90
2022-09-07T09:13:04.225Z,41.86
2022-09-07T09:15:54.378Z,41.89
2022-09-07T09:18:36.793Z,41.79
2022-09-07T09:21:13.987Z,42.10
2022-09-07T09:23:47.491Z,41.64
2022-09-07T09:26:23.822Z,41.31
2022-09-07T09:28:55.411Z,40.87
2022-09-07T09:31:30.451Z,41.38
2022-09-07T09:34:16.276Z,41.27
2022-09-07T09:36:50.085Z,41.49
2022-09-07T09:39:36.150Z,41.67
2022-09-07T09:42:23.321Z,41.08
2022-09-07T09:44:54.941Z,40.84
2022-09-07T09:47:36.038Z,41.22
2022-09-07T09:50:08.091Z,41.35
2022-09-07T09:52:49.322Z,40.78
2022-09-07T09:55:34.902Z,40.92
2022-09-07T10:01:27.324Z,40.71
2022-09-07T10:04:24.403Z,40.89
2022-09-07T10:06:58.305Z,41.08
2022-09-07T10:09:38.012Z,40.96
2022-09-07T10:12:26.232Z,41.66
2022-09-07T10:14:58.175Z,40.32
2022-09-07T10:17:33.520Z,40.76
2022-09-07T10:20:36.325Z,40.30
2022-09-07T10:23:20.393Z,40.66
2022-09-07T10:25:52.120Z,40.84
2022-09-07T10:29:06.556Z,40.00
2022-09-07T10:31:22.685Z,40.24
2022-09-07T10:37:02.599Z,40.24
2022-09-07T10:39:38.606Z,39.28
2022-09-07T10:42:23.471Z,40.01
2022-09-07T10:45:06.818Z,39.89
2022-09-07T10:47:49.498Z,40.33
2022-09-07T10:50:30.904Z,40.05
2022-09-07T10:53:40.296Z,39.38
2022-09-07T10:56:15.883Z,39.97
2022-09-07T10:59:04.257Z,38.60
2022-09-07T11:01:50.956Z,39.53
2022-09-07T11:04:38.337Z,39.55
2022-09-07T11:07:22.774Z,38.79
2022-09-07T11:09:59.885Z,38.74
2022-09-07T11:12:41.287Z,38.98
2022-09-07T11:15:22.121Z,38.77
2022-09-07T11:17:59.048Z,38.99
2022-09-07T11:20:35.526Z,38.91
2022-09-07T11:23:15.904Z,38.91
2022-09-07T11:25:56.925Z,39.60
2022-09-07T11:28:36.715Z,39.22
2022-09-07T11:31:17.025Z,39.11
2022-09-07T11:36:56.380Z,39.04
2022-09-07T11:39:35.327Z,38.09
2022-09-07T11:45:17.181Z,39.03
2022-09-07T11:47:54.281Z,38.86
2022-09-07T11:50:29.733Z,38.98
2022-09-07T11:53:08.064Z,38.57
2022-09-07T11:55:43.644Z,38.35
2022-09-07T11:58:32.131Z,38.60
2022-09-07T12:01:19.477Z,38.76
2022-09-07T12:04:06.826Z,38.57
2022-09-07T12:07:15.475Z,38.55
2022-09-07T12:10:03.666Z,38.85
2022-09-07T12:12:52.681Z,39.07
2022-09-07T12:15:35.411Z,38.53
2022-09-07T12:18:24.000Z,38.44
2022-09-07T12:20:55.853Z,38.56
2022-09-07T12:23:32.232Z,38.88
2022-09-07T12:26:50.360Z,39.11
2022-09-07T12:29:25.585Z,38.82
2022-09-07T12:31:59.644Z,39.48
2022-09-07T12:34:55.549Z,39.55
2022-09-07T12:37:45.222Z,39.44
2022-09-07T12:40:50.677Z,38.31
2022-09-07T12:43:54.656Z,38.36
2022-09-07T12:46:48.258Z,38.85
2022-09-07T12:49:39.290Z,38.89
2022-09-07T12:52:31.760Z,38.66
2022-09-07T12:55:28.896Z,38.49
2022-09-07T12:58:12.647Z,38.33
2022-09-07T13:00:59.204Z,38.74
2022-09-07T13:03:53.005Z,38.51
2022-09-07T13:09:39.563Z,38.31
2022-09-07T13:15:40.726Z,40.07
2022-09-07T13:18:34.383Z,38.84
2022-09-07T13:21:38.706Z,38.36
2022-09-07T13:24:50.458Z,39.04
2022-09-07T13:27:30.178Z,39.26
2022-09-07T13:30:07.525Z,39.35
2022-09-07T13:35:33.770Z,39.52
2022-09-07T13:38:06.124Z,39.10
2022-09-07T13:40:50.518Z,39.39
2022-09-07T13:43:24.037Z,39.81
2022-09-07T13:46:03.643Z,38.98
2022-09-07T13:48:45.256Z,38.68
2022-09-07T13:51:21.585Z,39.07
2022-09-07T13:54:05.482Z,39.69
2022-09-07T13:56:46.579Z,40.01
2022-09-07T13:59:23.418Z,39.40
2022-09-07T14:01:58.411Z,39.15
2022-09-07T14:04:35.255Z,38.48
2022-09-07T14:07:08.461Z,38.54
2022-09-07T14:09:40.185Z,38.29
2022-09-07T14:12:19.195Z,38.31
2022-09-07T14:15:10.702Z,38.32
2022-09-07T14:17:42.671Z,38.47
2022-09-07T14:20:17.998Z,38.24
2022-09-07T14:22:53.380Z,38.50
2022-09-07T14:25:26.434Z,39.16
2022-09-07T14:28:00.216Z,39.08
2022-09-07T14:30:34.151Z,38.45
2022-09-07T14:33:15.193Z,38.51
2022-09-07T14:35:45.228Z,38.55
2022-09-07T14:41:19.491Z,39.77
2022-09-07T14:43:58.500Z,40.54
2022-09-07T14:46:33.303Z,40.53
2022-09-07T14:49:19.710Z,40.46
2022-09-07T14:51:53.479Z,40.75
2022-09-07T14:54:28.307Z,40.68
2022-09-07T14:57:06.315Z,40.01
2022-09-07T14:59:46.547Z,39.67
2022-09-07T15:02:30.107Z,39.43
2022-09-07T15:05:26.308Z,39.89
2022-09-07T15:08:00.135Z,40.46
2022-09-07T15:10:36.814Z,40.41
2022-09-07T15:13:26.067Z,40.60
2022-09-07T15:16:03.075Z,40.73
2022-09-07T15:18:54.628Z,40.35
2022-09-07T15:21:29.633Z,40.20
2022-09-07T15:24:07.393Z,40.61
2022-09-07T15:29:36.956Z,40.44
2022-09-07T15:32:11.685Z,40.26
2022-09-07T15:34:43.301Z,40.61
2022-09-07T15:40:20.577Z,40.83
2022-09-07T15:43:00.000Z,40.53
2022-09-07T15:45:31.894Z,40.64
2022-09-07T15:48:03.969Z,40.35
2022-09-07T15:50:35.440Z,40.37
2022-09-07T15:54:07.547Z,40.45
2022-09-07T15:55:59.064Z,40.72
2022-09-07T15:58:32.148Z,40.80
2022-09-07T16:03:58.470Z,40.98
2022-09-07T16:06:31.593Z,41.46
2022-09-07T16:09:06.243Z,41.65
2022-09-07T16:11:37.933Z,41.84
2022-09-07T16:14:12.327Z,41.64
2022-09-07T16:19:40.828Z,41.57
2022-09-07T16:23:13.230Z,41.82
2022-09-07T16:25:09.194Z,42.24
2022-09-07T16:27:40.637Z,42.58
2022-09-07T16:30:13.749Z,42.78
2022-09-07T16:32:48.042Z,42.62
2022-09-07T16:35:19.641Z,42.46
2022-09-07T16:40:44.659Z,43.11
2022-09-07T16:43:16.411Z,43.24
2022-09-07T16:46:03.663Z,43.40
2022-09-07T16:48:36.973Z,43.70
2022-09-07T16:51:09.577Z,43.73
2022-09-07T16:53:41.135Z,43.79
2022-09-07T16:56:16.659Z,44.08
2022-09-07T16:58:51.070Z,44.44
2022-09-07T17:01:26.340Z,44.42
2022-09-07T17:04:03.530Z,44.95
2022-09-07T17:06:38.676Z,44.98
2022-09-07T17:09:11.431Z,45.39
2022-09-07T17:11:43.134Z,45.60
2022-09-07T17:14:14.619Z,46.12
2022-09-07T17:16:48.207Z,46.67
2022-09-07T17:19:29.422Z,46.82
2022-09-07T17:22:03.068Z,47.34
2022-09-07T17:24:37.141Z,47.37
2022-09-07T17:27:08.858Z,47.68
2022-09-07T17:29:41.713Z,47.91
2022-09-07T17:32:25.065Z,48.22
2022-09-07T17:34:57.074Z,48.68
2022-09-07T17:37:28.534Z,49.12
2022-09-07T17:40:00.124Z,49.95
2022-09-07T17:45:28.042Z,51.19
2022-09-07T17:48:02.228Z,51.67
2022-09-07T17:50:33.770Z,52.09
2022-09-07T17:53:05.286Z,52.35
2022-09-07T17:55:36.872Z,52.58
2022-09-07T17:58:08.287Z,52.72
2022-09-07T18:00:40.141Z,52.94
2022-09-07T18:03:14.470Z,53.27
2022-09-07T18:05:46.147Z,53.29
2022-09-07T18:08:17.651Z,53.75
2022-09-07T18:13:45.918Z,54.67
2022-09-07T18:16:21.131Z,54.81
2022-09-07T18:18:53.344Z,54.82
2022-09-07T18:21:27.600Z,54.81
2022-09-07T18:24:01.470Z,55.08
2022-09-07T18:26:34.117Z,55.61
2022-09-07T18:29:13.204Z,55.73
2022-09-07T18:31:51.124Z,55.90
2022-09-07T18:34:22.656Z,55.78
2022-09-07T18:36:55.361Z,55.68
2022-09-07T18:39:27.542Z,55.69
2022-09-07T18:41:59.275Z,55.62
2022-09-07T18:47:28.417Z,55.92
2022-09-07T18:50:01.811Z,55.79
2022-09-07T18:55:26.808Z,56.12
2022-09-07T18:57:58.475Z,56.59
2022-09-07T19:00:30.267Z,56.75
2022-09-07T19:03:02.070Z,56.87
2022-09-07T19:05:49.996Z,57.03
2022-09-07T19:08:21.899Z,57.05
2022-09-07T19:10:53.553Z,56.80
2022-09-07T19:13:25.091Z,56.79
2022-09-07T19:16:03.640Z,56.81
2022-09-07T19:18:35.643Z,57.02
2022-09-07T19:21:11.401Z,57.28
2022-09-07T19:23:53.203Z,57.18
2022-09-07T19:26:25.639Z,57.26
2022-09-07T19:29:03.217Z,57.18
2022-09-07T19:31:34.931Z,57.28
2022-09-07T19:34:06.607Z,57.86
2022-09-07T19:36:43.234Z,58.72
2022-09-07T19:39:15.295Z,59.16
2022-09-07T19:41:47.070Z,59.18
2022-09-07T19:44:22.068Z,59.65
2022-09-07T19:46:53.592Z,59.58
2022-09-07T19:49:25.178Z,59.46
2022-09-07T19:51:56.904Z,59.23
2022-09-07T19:54:28.352Z,59.23
2022-09-07T19:57:01.438Z,59.44
2022-09-07T19:59:33.068Z,59.86
2022-09-07T20:02:04.651Z,60.26
2022-09-07T20:04:36.199Z,60.38
2022-09-07T20:07:10.584Z,60.48
2022-09-07T20:09:43.662Z,60.65
2022-09-07T20:12:15.641Z,61.03
2022-09-07T20:14:47.403Z,61.26
2022-09-07T20:17:18.944Z,61.60
2022-09-07T20:19:51.525Z,61.82
2022-09-07T20:22:23.070Z,62.21
2022-09-07T20:24:54.572Z,62.14
2022-09-07T20:27:26.273Z,62.18
2022-09-07T20:29:57.763Z,62.48
2022-09-07T20:32:31.544Z,62.71
2022-09-07T20:35:03.030Z,62.89
2022-09-07T20:37:34.551Z,62.77
2022-09-07T20:40:09.214Z,62.88
2022-09-07T20:42:40.909Z,63.09
2022-09-07T20:45:13.438Z,63.22
2022-09-07T20:47:48.565Z,63.16
2022-09-07T20:50:22.728Z,63.44
2022-09-07T20:52:57.837Z,63.44
2022-09-07T20:55:29.934Z,63.34
2022-09-07T20:58:03.922Z,63.30
2022-09-07T21:00:36.352Z,63.71
2022-09-07T21:03:07.880Z,63.90
2022-09-07T21:05:39.112Z,63.68
2022-09-07T21:08:10.601Z,63.92
2022-09-07T21:10:44.895Z,63.91
2022-09-07T21:13:18.588Z,63.48
2022-09-07T21:15:48.801Z,63.69
2022-09-07T21:18:20.298Z,64.00
2022-09-07T21:21:18.409Z,63.97
2022-09-07T21:23:48.583Z,64.48
2022-09-07T21:26:24.275Z,64.66
2022-09-07T21:29:00.135Z,64.60
2022-09-07T21:31:33.442Z,64.72
2022-09-07T21:34:04.961Z,64.60
2022-09-07T21:36:36.542Z,64.75
2022-09-07T21:39:11.408Z,64.73
2022-09-07T21:41:47.443Z,64.95
2022-09-07T21:44:19.130Z,64.92
2022-09-07T21:46:51.135Z,64.95
2022-09-07T21:49:22.648Z,65.03
2022-09-07T21:51:54.168Z,65.13
2022-09-07T21:54:25.782Z,65.38
2022-09-07T21:56:57.285Z,65.40
2022-09-07T21:59:27.257Z,65.58
2022-09-07T22:01:59.057Z,65.40
2022-09-07T22:04:31.137Z,65.40
2022-09-07T22:07:03.930Z,65.29
2022-09-07T22:09:37.864Z,65.30
2022-09-07T22:12:09.756Z,65.73
2022-09-07T22:14:41.260Z,65.86
2022-09-07T22:17:12.758Z,65.77
2022-09-07T22:19:45.057Z,65.78
2022-09-07T22:22:17.713Z,66.03
2022-09-07T22:24:49.931Z,65.83
2022-09-07T22:27:21.395Z,65.76
2022-09-07T22:29:51.415Z,65.85
2022-09-07T22:32:22.848Z,66.26
2022-09-07T22:34:53.140Z,66.35
2022-09-07T22:37:25.077Z,66.58
2022-09-07T22:39:56.591Z,66.59
2022-09-07T22:42:28.055Z,66.08
2022-09-07T22:45:00.838Z,66.25
2022-09-07T22:47:32.280Z,66.66
2022-09-07T22:50:02.553Z,66.77
2022-09-07T22:52:33.996Z,66.91
2022-09-07T22:55:07.383Z,67.03
2022-09-07T22:57:38.830Z,67.06
2022-09-07T23:00:10.787Z,67.19
2022-09-07T23:02:42.267Z,67.33
2022-09-07T23:05:12.402Z,67.10
2022-09-07T23:07:43.844Z,67.20
2022-09-07T23:10:13.853Z,67.06
2022-09-07T23:12:45.555Z,67.21
2022-09-07T23:15:15.605Z,67.12
2022-09-07T23:17:47.004Z,67.22
2022-09-07T23:20:17.779Z,67.33
2022-09-07T23:22:49.333Z,67.52
2022-09-07T23:25:21.425Z,67.53
2022-09-07T23:27:53.145Z,67.53
2022-09-07T23:30:24.777Z,67.36
2022-09-07T23:32:58.925Z,67.35
2022-09-07T23:35:30.793Z,67.44
2022-09-07T23:38:02.266Z,67.31
2022-09-07T23:40:35.433Z,66.93
2022-09-07T23:43:06.873Z,66.77
2022-09-07T23:45:36.840Z,66.78
2022-09-07T23:48:08.753Z,66.92
2022-09-07T23:50:40.543Z,67.19
2022-09-07T23:53:14.252Z,67.47
2022-09-07T23:55:45.962Z,67.74
2022-09-07T23:58:17.558Z,67.59
